Chicago O'Hare International Airport
KORD : now visible

Airfield :











YOU CAN JOIN US ON...

 
LOGIN :

Register | Disclaimer

   EN    FR    IT 

 









Legend :    VFR   Marginal VFR   IFR   Intensive IFR   Very Intensive IFR
Visi :
Ceiling :
>= 8 km
>= 3000ft
5 to 8 km
1000 to 3000 ft
1500m to 5 km
500 to 1000 ft
800 to 1500m
200 to 500 ft
< 800m
< 200 ft
Symbols :   Thunderstorms  Fog  Heavy snow  Heavy precipitations  Wind > 20 kt







- Airport Elevation : 672 ft
- IATA code : ORD


KORD - Chicago O'Hare International

CURRENT METAR :
  • 190951Z 00000KT 10SM SCT075 21/18 A2996 RMK AO2 SLP139 T02060183 $

EXPIRED METARs :
  • 190851Z 00000KT 10SM BKN075 21/19 A2995 RMK AO2 SLP136 T02060189 53005 $
  • 190751Z 00000KT 10SM SCT075 20/18 A2993 RMK AO2 SLP132 T02000183 $

TAF KORD
Valid from the 19 at 09:00 until the 20 at 12:00 UTC


190837Z 1909/2012 30003KT P6SM BKN070
FM191200 01005KT P6SM BKN030
FM191700 08006KT P6SM SCT050
No reported NOTAMs for that airfield.



MET'MAP, your aeronautical weather chart ! - Copyright ORBIFLY December 2007 - Disclaimer

ORBIFLY MET'MAP TEAM :

Programming & Development : Alexandra Zaïnal
Concept & Development : Baudouin d'Aumeries
Co-Development & Prog : Marc-Olivier Méhu
Technical & hardware support : Manuel Goepfert

Contact : metmap@orbifly.com




SOURCES & CREDITS :

   NOAA       Earth
Advisory